»·PEaware :: N335AK F70-KSBA

N335AK :: F70-KSBA

FLIGHT INFORMATION

Flight Status: Arrived
Operator: Privately registered:
United States
More flights under this callsign
Pilot: Gabor H. (24209)
Aircraft: Unknown
(EPIC)
More flights by this aircraft type
Origin: F70 French Valley
United States
Destination: KSBA Santa Barbara Mun
United States
More flights between these airports :: More routes between these airports
Route: +PDZ V197 POM V264 ITSME V186 DEANO V27 KWANG
File this flight plan on PilotEdge
Remarks:
Altitude:
(Current/Filed)
8,000ft
Speed:
(Current/Filed)
285kts
Departed: 21-Oct-20 07:27 AM
Arrived: 21-Oct-20 08:16 AM
Distance/Time
Traveled:
144nm/0:48
Distance/Time
To Go:
Arrived

Flight Plot

Page will automatically refresh every two minutes.


Map Options




Map Legend


Flown Route
Filed Route
Departure Airport
Arrival Airport
Navaid (VOR, NDB)
Fix

Horizontal Profiles

Position Reports

Time Latitude Longitude Heading Altitude Ground
Speed
21-Oct-20 07:06 33.574817 -117.130059 8 1340ft 0kts
21-Oct-20 07:07 33.574817 -117.130059 8 1340ft 0kts
21-Oct-20 07:08 33.574817 -117.130059 8 1340ft 0kts
21-Oct-20 07:09 33.574817 -117.130059 8 1340ft 0kts
21-Oct-20 07:10 33.574817 -117.130059 8 1340ft 0kts
21-Oct-20 07:11 33.574817 -117.130059 8 1340ft 0kts
21-Oct-20 07:12 33.574817 -117.130059 8 1340ft 0kts
21-Oct-20 07:13 33.574817 -117.130059 8 1340ft 0kts
21-Oct-20 07:14 33.574817 -117.130059 8 1340ft 0kts
21-Oct-20 07:15 33.574817 -117.130059 8 1340ft 0kts
21-Oct-20 07:16 33.574817 -117.130059 8 1340ft 0kts
21-Oct-20 07:17 33.574817 -117.130059 8 1340ft 0kts
21-Oct-20 07:18 33.574817 -117.130059 8 1340ft 0kts
21-Oct-20 07:19 33.575911 -117.128873 8 1342ft 15kts
21-Oct-20 07:20 33.577310 -117.128493 195 1345ft 9kts
21-Oct-20 07:21 33.575048 -117.129076 190 1342ft 6kts
21-Oct-20 07:22 33.573068 -117.129584 193 1343ft 13kts
21-Oct-20 07:23 33.568973 -117.130674 192 1333ft 14kts
21-Oct-20 07:24 33.566334 -117.131245 105 1338ft 0kts
21-Oct-20 07:25 33.566273 -117.130895 96 1338ft 12kts
21-Oct-20 07:26 33.593650 -117.124289 1 2457ft 179kts
21-Oct-20 07:27 33.648649 -117.129154 340 3999ft 205kts
21-Oct-20 07:28 33.699915 -117.151240 339 4995ft 207kts
21-Oct-20 07:29 33.757998 -117.177095 339 4998ft 232kts
21-Oct-20 07:30 33.799272 -117.230581 299 5596ft 222kts
21-Oct-20 07:31 33.830844 -117.294530 300 7595ft 225kts
21-Oct-20 07:32 33.866474 -117.365025 301 7983ft 261kts
21-Oct-20 07:33 33.905224 -117.441830 301 7985ft 277kts
21-Oct-20 07:34 33.945282 -117.521392 301 7986ft 275kts
21-Oct-20 07:35 33.984964 -117.600401 300 7986ft 275kts
21-Oct-20 07:36 34.024667 -117.679626 300 7985ft 275kts
21-Oct-20 07:37 34.064217 -117.758720 300 7986ft 274kts
21-Oct-20 07:38 34.077287 -117.847400 269 7990ft 274kts
21-Oct-20 07:39 34.076056 -117.939314 268 7984ft 274kts
21-Oct-20 07:40 34.083126 -118.030060 289 7978ft 274kts
21-Oct-20 07:41 34.109330 -118.116633 289 7981ft 275kts
21-Oct-20 07:42 34.135788 -118.203162 289 7981ft 275kts
21-Oct-20 07:43 34.150446 -118.292578 272 7982ft 274kts
21-Oct-20 07:44 34.153247 -118.384701 272 7981ft 274kts
21-Oct-20 07:45 34.156022 -118.476874 272 7981ft 274kts
21-Oct-20 07:46 34.158789 -118.569444 272 7934ft 277kts
21-Oct-20 07:47 34.161346 -118.662518 271 6734ft 266kts
21-Oct-20 07:48 34.164077 -118.747686 271 5977ft 239kts
21-Oct-20 07:49 34.181660 -118.826472 281 5911ft 248kts
21-Oct-20 07:50 34.196973 -118.908036 284 5899ft 245kts
21-Oct-20 07:51 34.212307 -118.989787 284 5900ft 254kts
21-Oct-20 07:52 34.228048 -119.074141 284 5900ft 258kts
21-Oct-20 07:53 34.243944 -119.159696 284 5900ft 261kts
21-Oct-20 07:54 34.259726 -119.244887 284 5057ft 257kts
21-Oct-20 07:55 34.275246 -119.329148 284 3929ft 253kts
21-Oct-20 07:56 34.289792 -119.408445 284 3896ft 232kts
21-Oct-20 07:57 34.300593 -119.489129 272 3985ft 251kts
21-Oct-20 07:58 34.301760 -119.576280 272 3987ft 262kts
21-Oct-20 07:59 34.302998 -119.664084 272 3984ft 262kts
21-Oct-20 08:01 34.304324 -119.753120 272 3982ft 265kts
21-Oct-20 08:02 34.305718 -119.842448 272 3982ft 265kts
21-Oct-20 08:03 34.307133 -119.931663 272 3981ft 264kts
21-Oct-20 08:04 34.308573 -120.020408 272 3998ft 262kts
21-Oct-20 08:05 34.350101 -120.067767 352 4000ft 211kts
21-Oct-20 08:06 34.400880 -120.056564 52 4015ft 199kts
21-Oct-20 08:07 34.425698 -120.001014 98 2898ft 199kts
21-Oct-20 08:08 34.425695 -119.941018 86 2110ft 167kts
21-Oct-20 08:09 34.393059 -119.927906 247 2107ft 189kts
21-Oct-20 08:10 34.383828 -119.992547 262 2102ft 199kts
21-Oct-20 08:11 34.406312 -120.038305 352 2108ft 188kts
21-Oct-20 08:12 34.424949 -119.993109 91 2098ft 170kts
21-Oct-20 08:13 34.425736 -119.937356 86 1381ft 137kts
21-Oct-20 08:14 34.426660 -119.894997 85 741ft 114kts
21-Oct-20 08:15 34.427416 -119.858678 86 113ft 96kts
21-Oct-20 08:16 34.428599 -119.845212 62 16ft 14kts
21-Oct-20 08:17 34.431234 -119.838308 64 16ft 21kts
21-Oct-20 08:18 34.432593 -119.835071 70 16ft 0kts

Navigation Log

Ident Type
Flight plan parsing failed, navigation log unavailable